createdAt,value
2019-05-30T00:00:08.868Z,0.00
2019-05-30T00:00:53.946Z,0.00
2019-05-30T00:01:54.174Z,0.00
2019-05-30T00:02:53.935Z,0.00
2019-05-30T00:03:53.947Z,0.00
2019-05-30T00:04:54.050Z,0.00
2019-05-30T00:05:54.153Z,0.00
2019-05-30T00:06:54.174Z,0.00
2019-05-30T00:07:54.052Z,0.00
2019-05-30T00:08:52.730Z,0.00
2019-05-30T00:09:52.709Z,0.00
2019-05-30T00:10:52.700Z,0.00
2019-05-30T00:11:52.696Z,0.00
2019-05-30T00:12:52.676Z,0.00
2019-05-30T00:13:52.665Z,0.00
2019-05-30T00:14:52.659Z,0.00
2019-05-30T00:15:52.645Z,0.00
2019-05-30T00:16:52.643Z,0.00
2019-05-30T00:17:52.623Z,0.00
2019-05-30T00:18:52.614Z,0.00
2019-05-30T00:19:52.602Z,0.00
2019-05-30T00:20:52.590Z,0.00
2019-05-30T00:21:52.588Z,0.00
2019-05-30T00:22:52.593Z,0.00
2019-05-30T00:23:52.560Z,0.00
2019-05-30T00:24:52.547Z,0.00
2019-05-30T00:25:52.540Z,0.00
2019-05-30T00:26:52.538Z,0.00
2019-05-30T00:27:52.517Z,0.00
2019-05-30T00:28:52.503Z,0.00
2019-05-30T00:29:52.491Z,0.00
2019-05-30T00:30:52.480Z,0.00
2019-05-30T00:31:52.480Z,0.00
2019-05-30T00:32:52.459Z,0.00
2019-05-30T00:33:52.448Z,0.00
2019-05-30T00:34:52.437Z,0.00
2019-05-30T00:35:52.427Z,0.00
2019-05-30T00:36:52.425Z,0.00
2019-05-30T00:37:52.404Z,0.00
2019-05-30T00:38:52.403Z,0.00
2019-05-30T00:39:52.385Z,0.00
2019-05-30T00:40:52.379Z,0.00
2019-05-30T00:41:52.370Z,0.00
2019-05-30T00:42:52.352Z,0.00
2019-05-30T00:43:52.342Z,0.00
2019-05-30T00:44:52.331Z,0.00
2019-05-30T00:45:52.322Z,0.00
2019-05-30T00:46:52.368Z,0.00
2019-05-30T00:47:52.297Z,0.00
2019-05-30T00:48:52.286Z,0.00
2019-05-30T00:49:52.277Z,0.00
2019-05-30T00:50:52.273Z,0.00
2019-05-30T00:51:52.255Z,0.00
2019-05-30T00:52:52.251Z,0.00
2019-05-30T00:53:52.231Z,0.00
2019-05-30T00:54:52.221Z,0.00
2019-05-30T00:55:52.213Z,0.00
2019-05-30T00:56:52.200Z,0.00
2019-05-30T00:57:52.199Z,0.00
2019-05-30T00:58:52.178Z,0.00
2019-05-30T00:59:52.165Z,0.00
2019-05-30T01:00:52.155Z,0.00
2019-05-30T01:01:52.144Z,0.00
2019-05-30T01:02:52.167Z,0.00
2019-05-30T01:03:52.123Z,0.00
2019-05-30T01:04:52.118Z,0.00
2019-05-30T01:05:52.105Z,0.00
2019-05-30T01:06:52.134Z,0.00
2019-05-30T01:07:52.098Z,0.00
2019-05-30T01:08:52.073Z,0.00
2019-05-30T01:09:52.058Z,0.00
2019-05-30T01:10:52.050Z,0.00
2019-05-30T01:11:52.036Z,0.00
2019-05-30T01:12:52.036Z,0.00
2019-05-30T01:13:52.017Z,0.00
2019-05-30T01:14:52.011Z,0.00
2019-05-30T01:15:51.998Z,0.00
2019-05-30T01:16:51.984Z,0.00
2019-05-30T01:17:51.983Z,0.00
2019-05-30T01:18:51.963Z,0.00
2019-05-30T01:19:51.960Z,0.00
2019-05-30T01:20:51.940Z,0.00
2019-05-30T01:21:51.932Z,0.00
2019-05-30T01:22:51.931Z,0.00
2019-05-30T01:23:51.909Z,0.00
2019-05-30T01:24:51.909Z,0.00
2019-05-30T01:25:51.887Z,0.00
2019-05-30T01:26:51.876Z,0.00
2019-05-30T01:27:51.877Z,0.00
2019-05-30T01:28:51.857Z,0.00
2019-05-30T01:29:51.855Z,0.00
2019-05-30T01:31:00.304Z,0.00
2019-05-30T01:31:52.822Z,0.00
2019-05-30T01:32:51.827Z,0.00
2019-05-30T01:33:51.808Z,0.00
2019-05-30T01:34:51.790Z,0.00
2019-05-30T01:35:51.782Z,0.00
2019-05-30T01:36:51.769Z,0.00
2019-05-30T01:37:51.771Z,0.00
2019-05-30T01:38:51.748Z,0.00
2019-05-30T01:39:51.739Z,0.00
2019-05-30T01:40:51.730Z,0.00
2019-05-30T01:41:51.717Z,0.00
2019-05-30T01:42:51.715Z,0.00
2019-05-30T01:43:51.697Z,0.00
2019-05-30T01:44:51.685Z,0.00
2019-05-30T01:45:51.674Z,0.00
2019-05-30T01:46:51.662Z,0.00
2019-05-30T01:47:51.662Z,0.00
2019-05-30T01:48:51.641Z,0.00
2019-05-30T01:49:51.634Z,0.00
2019-05-30T01:50:51.621Z,0.00
2019-05-30T01:51:51.610Z,0.00
2019-05-30T01:52:51.657Z,0.00
2019-05-30T01:53:51.589Z,0.00
2019-05-30T01:54:51.581Z,0.00
2019-05-30T01:55:51.566Z,0.00
2019-05-30T01:56:51.554Z,0.00
2019-05-30T01:57:51.544Z,0.00
2019-05-30T01:58:51.542Z,0.00
2019-05-30T01:59:51.529Z,0.00
2019-05-30T02:00:51.511Z,0.00
2019-05-30T02:01:51.502Z,0.00
2019-05-30T02:02:51.497Z,0.00
2019-05-30T02:03:51.488Z,0.00
2019-05-30T02:04:51.472Z,0.00
2019-05-30T02:05:51.460Z,0.00
2019-05-30T02:06:51.446Z,0.00
2019-05-30T02:07:51.437Z,0.00
2019-05-30T02:08:51.433Z,0.00
2019-05-30T02:09:51.415Z,0.00
2019-05-30T02:10:51.403Z,0.00
2019-05-30T02:11:51.395Z,0.00
2019-05-30T02:12:51.391Z,0.00
2019-05-30T02:13:51.379Z,0.00
2019-05-30T02:14:51.361Z,0.00
2019-05-30T02:15:51.368Z,0.00
2019-05-30T02:16:51.339Z,0.00
2019-05-30T02:17:51.329Z,0.00
2019-05-30T02:18:51.335Z,0.00
2019-05-30T02:19:51.307Z,0.00
2019-05-30T02:20:51.295Z,0.00
2019-05-30T02:21:51.284Z,0.00
2019-05-30T02:22:51.281Z,0.00
2019-05-30T02:23:51.270Z,0.00
2019-05-30T02:24:51.253Z,0.00
2019-05-30T02:25:51.244Z,0.00
2019-05-30T02:26:51.235Z,0.00
2019-05-30T02:27:51.229Z,0.00
2019-05-30T02:28:51.216Z,0.00
2019-05-30T02:29:51.198Z,0.00
2019-05-30T02:30:51.190Z,0.00
2019-05-30T02:31:51.180Z,0.00
2019-05-30T02:32:51.168Z,0.00
2019-05-30T02:33:51.164Z,5.62
2019-05-30T02:34:51.146Z,5.62
2019-05-30T02:35:51.134Z,5.62
2019-05-30T02:36:51.124Z,5.62
2019-05-30T02:37:51.117Z,5.62
2019-05-30T02:38:51.110Z,5.62
2019-05-30T02:39:51.089Z,5.62
2019-05-30T02:40:51.082Z,5.62
2019-05-30T02:41:51.072Z,5.62
2019-05-30T02:42:51.060Z,5.62
2019-05-30T02:43:51.064Z,5.62
2019-05-30T02:44:51.038Z,5.62
2019-05-30T02:45:51.034Z,5.62
2019-05-30T02:46:51.017Z,5.62
2019-05-30T02:47:51.010Z,11.25
2019-05-30T02:48:58.924Z,11.25
2019-05-30T02:49:51.982Z,11.25
2019-05-30T02:50:50.973Z,11.25
2019-05-30T02:51:50.965Z,11.25
2019-05-30T02:52:50.970Z,11.25
2019-05-30T02:53:50.948Z,16.88
2019-05-30T02:54:50.930Z,16.88
2019-05-30T02:55:50.919Z,16.88
2019-05-30T02:56:50.908Z,22.50
2019-05-30T02:57:50.898Z,22.50
2019-05-30T02:58:50.895Z,22.50
2019-05-30T02:59:50.882Z,28.12
2019-05-30T03:00:50.864Z,28.12
2019-05-30T03:02:00.846Z,28.12
2019-05-30T03:02:51.849Z,33.75
2019-05-30T03:03:50.874Z,33.75
2019-05-30T03:04:50.822Z,33.75
2019-05-30T03:05:50.834Z,33.75
2019-05-30T03:06:50.802Z,39.38
2019-05-30T03:07:50.795Z,39.38
2019-05-30T03:08:50.778Z,39.38
2019-05-30T03:09:50.781Z,45.00
2019-05-30T03:10:50.765Z,45.00
2019-05-30T03:11:50.744Z,45.00
2019-05-30T03:12:50.737Z,50.62
2019-05-30T03:13:50.725Z,50.62
2019-05-30T03:14:50.723Z,50.62
2019-05-30T03:15:50.705Z,56.25
2019-05-30T03:16:50.695Z,56.25
2019-05-30T03:17:50.682Z,61.88
2019-05-30T03:18:50.759Z,61.88
2019-05-30T03:19:50.669Z,73.12
2019-05-30T03:20:50.685Z,78.75
2019-05-30T03:21:50.636Z,84.38
2019-05-30T03:22:50.638Z,84.38
2019-05-30T03:23:50.623Z,84.38
2019-05-30T03:24:50.615Z,106.88
2019-05-30T03:25:50.595Z,180.00
2019-05-30T03:26:50.583Z,180.00
2019-05-30T03:27:50.575Z,118.12
2019-05-30T03:28:53.382Z,95.62
2019-05-30T03:29:50.564Z,101.25
2019-05-30T03:30:50.547Z,129.38
2019-05-30T03:31:50.643Z,140.62
2019-05-30T03:33:19.128Z,129.38
2019-05-30T03:33:51.539Z,106.88
2019-05-30T03:34:50.625Z,106.88
2019-05-30T03:35:50.491Z,106.88
2019-05-30T03:36:50.477Z,118.12
2019-05-30T03:37:50.475Z,135.00
2019-05-30T03:38:50.459Z,140.62
2019-05-30T03:39:50.453Z,135.00
2019-05-30T03:40:50.442Z,140.62
2019-05-30T03:41:50.427Z,157.50
2019-05-30T03:42:50.413Z,219.38
2019-05-30T03:43:50.427Z,393.75
2019-05-30T03:44:50.400Z,573.75
2019-05-30T03:45:50.383Z,466.88
2019-05-30T03:46:50.391Z,320.62
2019-05-30T03:47:50.358Z,309.38
2019-05-30T03:48:50.347Z,478.12
2019-05-30T03:49:50.347Z,731.25
2019-05-30T03:50:50.325Z,658.12
2019-05-30T03:51:50.316Z,416.25
2019-05-30T03:52:50.302Z,320.62
2019-05-30T03:53:50.295Z,399.38
2019-05-30T03:54:50.295Z,455.62
2019-05-30T03:55:50.275Z,399.38
2019-05-30T03:56:50.260Z,511.88
2019-05-30T03:57:50.249Z,697.50
2019-05-30T03:58:50.241Z,916.88
2019-05-30T03:59:50.250Z,1158.75
2019-05-30T04:00:51.369Z,1451.25
2019-05-30T04:01:50.207Z,1743.75
2019-05-30T04:02:57.653Z,2002.50
2019-05-30T04:03:51.185Z,2047.50
2019-05-30T04:04:50.187Z,2002.50
2019-05-30T04:05:50.163Z,2154.38
2019-05-30T04:06:50.153Z,2221.88
2019-05-30T04:07:50.148Z,2109.38
2019-05-30T04:08:50.135Z,2103.75
2019-05-30T04:09:50.153Z,2244.38
2019-05-30T04:10:50.119Z,2328.75
2019-05-30T04:11:50.096Z,2351.25
2019-05-30T04:12:50.085Z,2317.50
2019-05-30T04:13:50.081Z,2278.12
2019-05-30T04:14:50.063Z,2295.00
2019-05-30T04:15:50.062Z,2379.38
2019-05-30T04:16:50.059Z,2463.75
2019-05-30T04:17:50.031Z,2486.25
2019-05-30T04:18:50.022Z,2345.62
2019-05-30T04:19:50.012Z,2165.62
2019-05-30T04:20:50.020Z,2199.38
2019-05-30T04:21:49.993Z,2491.88
2019-05-30T04:22:49.978Z,2700.00
2019-05-30T04:23:49.970Z,2677.50
2019-05-30T04:24:49.956Z,2626.88
2019-05-30T04:25:49.956Z,2728.12
2019-05-30T04:26:49.939Z,2745.00
2019-05-30T04:27:49.923Z,2632.50
2019-05-30T04:28:49.913Z,2671.88
2019-05-30T04:29:49.901Z,2750.62
2019-05-30T04:30:49.905Z,2874.38
2019-05-30T04:31:49.884Z,2868.75
2019-05-30T04:32:49.870Z,2733.75
2019-05-30T04:33:49.860Z,2733.75
2019-05-30T04:34:49.859Z,2857.50
2019-05-30T04:35:49.846Z,2896.88
2019-05-30T04:36:53.245Z,2970.00
2019-05-30T04:37:49.823Z,3031.88
2019-05-30T04:38:49.806Z,3009.38
2019-05-30T04:39:49.797Z,2970.00
2019-05-30T04:40:49.791Z,3037.50
2019-05-30T04:41:49.781Z,3071.25
2019-05-30T04:42:49.764Z,3060.00
2019-05-30T04:43:49.759Z,3037.50
2019-05-30T04:44:49.757Z,3060.00
2019-05-30T04:45:49.754Z,3110.62
2019-05-30T04:46:49.724Z,3183.75
2019-05-30T04:47:49.712Z,3211.88
2019-05-30T04:48:49.707Z,3166.88
2019-05-30T04:49:49.695Z,3217.50
2019-05-30T04:50:49.689Z,3273.75
2019-05-30T04:51:49.670Z,3256.88
2019-05-30T04:52:49.662Z,3251.25
2019-05-30T04:53:49.661Z,3307.50
2019-05-30T04:54:49.644Z,3341.25
2019-05-30T04:55:49.655Z,3290.62
2019-05-30T04:56:49.629Z,3262.50
2019-05-30T04:57:49.612Z,3324.38
2019-05-30T04:58:49.598Z,3386.25
2019-05-30T04:59:49.590Z,3408.75
2019-05-30T05:00:49.577Z,3397.50
2019-05-30T05:01:49.613Z,3448.12
2019-05-30T05:02:49.559Z,3538.12
2019-05-30T05:03:49.548Z,3476.25
2019-05-30T05:04:49.538Z,3380.62
2019-05-30T05:05:49.531Z,3375.00
2019-05-30T05:06:49.525Z,3313.12
2019-05-30T05:07:49.511Z,3341.25
2019-05-30T05:08:49.500Z,3363.75
2019-05-30T05:09:49.497Z,3234.38
2019-05-30T05:10:49.478Z,3144.38
2019-05-30T05:11:49.485Z,3127.50
2019-05-30T05:12:49.459Z,3009.38
2019-05-30T05:13:49.460Z,3211.88
2019-05-30T05:14:49.437Z,3571.88
2019-05-30T05:15:49.429Z,3600.00
2019-05-30T05:16:49.426Z,3571.88
2019-05-30T05:17:49.410Z,3622.50
2019-05-30T05:18:49.412Z,3695.62
2019-05-30T05:19:49.396Z,3847.50
2019-05-30T05:20:49.384Z,3937.50
2019-05-30T05:21:49.377Z,3757.50
2019-05-30T05:22:49.358Z,3661.88
2019-05-30T05:23:49.349Z,3763.12
2019-05-30T05:24:49.343Z,3830.62
2019-05-30T05:26:00.312Z,3875.62
2019-05-30T05:26:50.329Z,3875.62
2019-05-30T05:27:49.312Z,3763.12
2019-05-30T05:28:49.300Z,2919.38
2019-05-30T05:29:49.290Z,2992.50
2019-05-30T05:30:49.282Z,2970.00
2019-05-30T05:31:49.281Z,3211.88
2019-05-30T05:32:49.262Z,4111.88
2019-05-30T05:33:56.798Z,4185.00
2019-05-30T05:34:52.116Z,4145.62
2019-05-30T05:35:49.235Z,4140.00
2019-05-30T05:36:49.231Z,4089.38
2019-05-30T05:37:49.221Z,4021.88
2019-05-30T05:38:49.205Z,3763.12
2019-05-30T05:39:49.207Z,3442.50
2019-05-30T05:40:49.187Z,3583.12
2019-05-30T05:41:49.187Z,3318.75
2019-05-30T05:42:49.172Z,3358.12
2019-05-30T05:43:49.161Z,3588.75
2019-05-30T05:44:49.152Z,3521.25
2019-05-30T05:45:49.141Z,3931.88
2019-05-30T05:46:49.140Z,4010.62
2019-05-30T05:47:49.122Z,4095.00
2019-05-30T05:48:49.115Z,4308.75
2019-05-30T05:49:49.104Z,3330.00
2019-05-30T05:50:49.094Z,2806.88
2019-05-30T05:51:49.117Z,2896.88
2019-05-30T05:52:49.079Z,3178.12
2019-05-30T05:53:49.070Z,3521.25
2019-05-30T05:54:49.056Z,3313.12
2019-05-30T05:55:49.046Z,3656.25
2019-05-30T05:56:49.049Z,3217.50
2019-05-30T05:57:49.026Z,3324.38
2019-05-30T05:58:49.017Z,3234.38
2019-05-30T05:59:49.007Z,3324.38
2019-05-30T06:00:49.005Z,3369.38
2019-05-30T06:01:48.995Z,3650.62
2019-05-30T06:02:48.977Z,3903.75
2019-05-30T06:03:48.967Z,4303.12
2019-05-30T06:04:48.958Z,4455.00
2019-05-30T06:05:53.076Z,4578.75
2019-05-30T06:06:48.974Z,4651.88
2019-05-30T06:07:48.930Z,4815.00
2019-05-30T06:08:48.921Z,4865.62
2019-05-30T06:09:48.914Z,4809.38
2019-05-30T06:10:48.907Z,4770.00
2019-05-30T06:11:49.196Z,4860.00
2019-05-30T06:12:48.892Z,4612.50
2019-05-30T06:13:48.873Z,4567.50
2019-05-30T06:14:48.864Z,4387.50
2019-05-30T06:15:48.854Z,4584.38
2019-05-30T06:16:48.845Z,4421.25
2019-05-30T06:17:48.843Z,4657.50
2019-05-30T06:18:48.828Z,4511.25
2019-05-30T06:19:48.817Z,4455.00
2019-05-30T06:20:48.806Z,4291.88
2019-05-30T06:21:54.112Z,4314.38
2019-05-30T06:22:49.796Z,4376.25
2019-05-30T06:23:48.788Z,4623.75
2019-05-30T06:24:48.772Z,5141.25
2019-05-30T06:25:48.761Z,4511.25
2019-05-30T06:26:48.759Z,3931.88
2019-05-30T06:27:48.751Z,3892.50
2019-05-30T06:28:48.738Z,3836.25
2019-05-30T06:29:48.723Z,3909.38
2019-05-30T06:30:48.713Z,3521.25
2019-05-30T06:31:48.706Z,3313.12
2019-05-30T06:32:48.707Z,3622.50
2019-05-30T06:33:48.686Z,3920.62
2019-05-30T06:34:48.677Z,3802.50
2019-05-30T06:35:48.665Z,3960.00
2019-05-30T06:36:48.658Z,4100.62
2019-05-30T06:37:48.653Z,4010.62
2019-05-30T06:38:48.636Z,4038.75
2019-05-30T06:39:48.629Z,3993.75
2019-05-30T06:40:48.620Z,3875.62
2019-05-30T06:41:48.607Z,3549.38
2019-05-30T06:42:48.604Z,2233.12
2019-05-30T06:43:48.586Z,978.75
2019-05-30T06:44:48.578Z,658.12
2019-05-30T06:45:48.567Z,607.50
2019-05-30T06:46:48.560Z,596.25
2019-05-30T06:47:48.563Z,568.12
2019-05-30T06:48:48.536Z,562.50
2019-05-30T06:49:48.525Z,551.25
2019-05-30T06:50:48.516Z,506.25
2019-05-30T06:51:48.510Z,556.88
2019-05-30T06:52:48.508Z,545.62
2019-05-30T06:53:48.485Z,545.62
2019-05-30T06:54:48.477Z,534.38
2019-05-30T06:55:48.466Z,523.12
2019-05-30T06:56:48.455Z,528.75
2019-05-30T06:57:48.455Z,495.00
2019-05-30T06:58:49.202Z,495.00
2019-05-30T06:59:48.424Z,483.75
2019-05-30T07:00:48.413Z,489.38
2019-05-30T07:01:51.806Z,495.00
2019-05-30T07:02:48.403Z,489.38
2019-05-30T07:03:48.480Z,483.75
2019-05-30T07:04:52.126Z,483.75
2019-05-30T07:05:48.958Z,495.00
2019-05-30T07:06:48.621Z,478.12
2019-05-30T07:07:48.516Z,483.75
2019-05-30T07:08:48.331Z,483.75
2019-05-30T07:09:48.321Z,472.50
2019-05-30T07:10:48.312Z,472.50
2019-05-30T07:11:48.306Z,461.25
2019-05-30T07:12:48.301Z,466.88
2019-05-30T07:13:48.281Z,455.62
2019-05-30T07:14:48.269Z,455.62
2019-05-30T07:15:48.258Z,461.25
2019-05-30T07:16:48.250Z,461.25
2019-05-30T07:17:48.251Z,466.88
2019-05-30T07:18:48.229Z,450.00
2019-05-30T07:19:48.216Z,455.62
2019-05-30T07:20:48.206Z,438.75
2019-05-30T07:21:48.195Z,438.75
2019-05-30T07:22:48.195Z,427.50
2019-05-30T07:23:48.175Z,427.50
2019-05-30T07:24:48.163Z,427.50
2019-05-30T07:25:48.151Z,433.12
2019-05-30T07:26:48.142Z,421.88
2019-05-30T07:27:48.132Z,427.50
2019-05-30T07:28:48.129Z,421.88
2019-05-30T07:29:48.107Z,433.12
2019-05-30T07:30:48.098Z,421.88
2019-05-30T07:31:48.091Z,427.50
2019-05-30T07:32:48.081Z,438.75
2019-05-30T07:33:48.076Z,433.12
2019-05-30T07:34:48.058Z,433.12
2019-05-30T07:35:48.048Z,444.38
2019-05-30T07:36:48.035Z,433.12
2019-05-30T07:37:48.030Z,433.12
2019-05-30T07:38:48.022Z,427.50
2019-05-30T07:39:48.012Z,427.50
2019-05-30T07:40:47.993Z,427.50
2019-05-30T07:42:04.905Z,421.88
2019-05-30T07:42:48.970Z,416.25
2019-05-30T07:43:47.970Z,410.62
2019-05-30T07:44:47.950Z,410.62
2019-05-30T07:45:57.659Z,410.62
2019-05-30T07:46:48.928Z,421.88
2019-05-30T07:47:47.922Z,410.62
2019-05-30T07:48:47.915Z,410.62
2019-05-30T07:49:47.897Z,405.00
2019-05-30T07:50:47.889Z,405.00
2019-05-30T07:51:47.878Z,399.38
2019-05-30T07:52:47.866Z,399.38
2019-05-30T07:53:47.863Z,393.75
2019-05-30T07:54:47.843Z,399.38
2019-05-30T07:55:47.833Z,388.12
2019-05-30T07:56:47.824Z,382.50
2019-05-30T07:57:47.811Z,382.50
2019-05-30T07:58:47.813Z,382.50
2019-05-30T07:59:47.800Z,382.50
2019-05-30T08:00:47.782Z,376.88
2019-05-30T08:01:47.769Z,371.25
2019-05-30T08:02:47.760Z,376.88
2019-05-30T08:03:47.756Z,376.88
2019-05-30T08:04:47.739Z,365.62
2019-05-30T08:05:47.725Z,365.62
2019-05-30T08:06:47.715Z,360.00
2019-05-30T08:07:47.705Z,365.62
2019-05-30T08:08:47.702Z,360.00
2019-05-30T08:09:47.684Z,360.00
2019-05-30T08:10:47.672Z,360.00
2019-05-30T08:11:47.663Z,360.00
2019-05-30T08:12:47.651Z,348.75
2019-05-30T08:13:47.653Z,354.38
2019-05-30T08:14:47.631Z,354.38
2019-05-30T08:15:47.619Z,354.38
2019-05-30T08:16:47.608Z,348.75
2019-05-30T08:17:47.603Z,348.75
2019-05-30T08:18:47.596Z,348.75
2019-05-30T08:19:47.575Z,348.75
2019-05-30T08:20:47.565Z,343.12
2019-05-30T08:21:47.555Z,348.75
2019-05-30T08:22:47.547Z,343.12
2019-05-30T08:23:47.542Z,343.12
2019-05-30T08:24:47.524Z,337.50
2019-05-30T08:25:47.513Z,343.12
2019-05-30T08:26:47.502Z,331.88
2019-05-30T08:27:47.491Z,331.88
2019-05-30T08:28:47.501Z,326.25
2019-05-30T08:29:47.470Z,326.25
2019-05-30T08:30:47.459Z,331.88
2019-05-30T08:31:47.446Z,326.25
2019-05-30T08:32:47.438Z,326.25
2019-05-30T08:33:47.628Z,309.38
2019-05-30T08:34:47.416Z,326.25
2019-05-30T08:35:49.579Z,326.25
2019-05-30T08:36:47.393Z,320.62
2019-05-30T08:37:47.391Z,326.25
2019-05-30T08:38:48.263Z,326.25
2019-05-30T08:39:47.362Z,326.25
2019-05-30T08:40:47.352Z,326.25
2019-05-30T08:41:47.344Z,326.25
2019-05-30T08:42:47.332Z,326.25
2019-05-30T08:43:47.319Z,320.62
2019-05-30T08:44:47.316Z,320.62
2019-05-30T08:45:47.301Z,320.62
2019-05-30T08:46:47.288Z,315.00
2019-05-30T08:47:47.275Z,320.62
2019-05-30T08:48:47.264Z,326.25
2019-05-30T08:49:47.264Z,326.25
2019-05-30T08:50:47.243Z,326.25
2019-05-30T08:51:47.234Z,326.25
2019-05-30T08:52:47.223Z,326.25
2019-05-30T08:53:47.211Z,326.25
2019-05-30T08:54:47.211Z,315.00
2019-05-30T08:55:47.190Z,331.88
2019-05-30T08:56:47.178Z,331.88
2019-05-30T08:57:47.176Z,331.88
2019-05-30T08:58:47.156Z,331.88
2019-05-30T08:59:47.159Z,337.50
2019-05-30T09:00:47.138Z,331.88
2019-05-30T09:01:51.714Z,337.50
2019-05-30T09:02:48.115Z,309.38
2019-05-30T09:03:47.103Z,337.50
2019-05-30T09:04:47.100Z,337.50
2019-05-30T09:05:59.300Z,337.50
2019-05-30T09:06:48.070Z,337.50
2019-05-30T09:07:47.065Z,331.88
2019-05-30T09:08:47.049Z,337.50
2019-05-30T09:09:47.047Z,337.50
2019-05-30T09:10:47.030Z,337.50
2019-05-30T09:11:47.017Z,337.50
2019-05-30T09:12:49.489Z,337.50
2019-05-30T09:13:46.996Z,343.12
2019-05-30T09:14:47.007Z,343.12
2019-05-30T09:15:47.124Z,343.12
2019-05-30T09:16:48.269Z,343.12
2019-05-30T09:17:46.960Z,343.12
2019-05-30T09:18:47.482Z,337.50
2019-05-30T09:19:47.492Z,337.50
2019-05-30T09:20:47.447Z,343.12
2019-05-30T09:21:47.514Z,343.12
2019-05-30T09:22:47.430Z,343.12
2019-05-30T09:23:47.964Z,337.50
2019-05-30T09:24:47.937Z,337.50
2019-05-30T09:25:49.302Z,337.50
2019-05-30T09:26:50.194Z,337.50
2019-05-30T09:27:48.245Z,337.50
2019-05-30T09:28:46.835Z,315.00
2019-05-30T09:29:46.834Z,337.50
2019-05-30T09:30:46.819Z,337.50
2019-05-30T09:31:46.803Z,337.50
2019-05-30T09:32:47.055Z,337.50
2019-05-30T09:33:46.791Z,331.88
2019-05-30T09:34:47.015Z,337.50
2019-05-30T09:35:47.084Z,337.50
2019-05-30T09:36:46.961Z,337.50
2019-05-30T09:37:47.762Z,326.25
2019-05-30T09:38:47.450Z,331.88
2019-05-30T09:39:47.417Z,331.88
2019-05-30T09:40:47.651Z,331.88
2019-05-30T09:41:47.743Z,331.88
2019-05-30T09:42:48.521Z,331.88
2019-05-30T09:43:46.675Z,331.88
2019-05-30T09:44:50.208Z,331.88
2019-05-30T09:45:46.657Z,331.88
2019-05-30T09:46:47.005Z,331.88
2019-05-30T09:47:47.133Z,331.88
2019-05-30T09:48:46.817Z,337.50
2019-05-30T09:49:46.626Z,337.50
2019-05-30T09:50:46.819Z,343.12
2019-05-30T09:51:47.021Z,354.38
2019-05-30T09:52:47.132Z,326.25
2019-05-30T09:53:46.569Z,331.88
2019-05-30T09:54:46.569Z,331.88
2019-05-30T09:55:46.561Z,326.25
2019-05-30T09:56:46.646Z,326.25
2019-05-30T09:57:47.575Z,337.50
2019-05-30T09:58:47.665Z,320.62
2019-05-30T09:59:48.158Z,326.25
2019-05-30T10:00:48.203Z,331.88
2019-05-30T10:01:46.483Z,326.25
2019-05-30T10:02:46.836Z,320.62
2019-05-30T10:03:46.597Z,326.25
2019-05-30T10:04:46.900Z,326.25
2019-05-30T10:05:47.057Z,331.88
2019-05-30T10:06:46.431Z,326.25
2019-05-30T10:07:47.499Z,326.25
2019-05-30T10:08:47.724Z,326.25
2019-05-30T10:09:47.157Z,326.25
2019-05-30T10:10:47.702Z,326.25
2019-05-30T10:11:47.243Z,326.25
2019-05-30T10:12:46.929Z,326.25
2019-05-30T10:13:47.518Z,326.25
2019-05-30T10:14:46.898Z,326.25
2019-05-30T10:15:46.962Z,320.62
2019-05-30T10:16:50.338Z,326.25
2019-05-30T10:17:48.125Z,320.62
2019-05-30T10:18:47.437Z,315.00
2019-05-30T10:19:47.149Z,320.62
2019-05-30T10:20:47.835Z,326.25
2019-05-30T10:21:47.183Z,315.00
2019-05-30T10:22:47.112Z,320.62
2019-05-30T10:23:47.519Z,320.62
2019-05-30T10:24:47.576Z,320.62
2019-05-30T10:25:47.846Z,326.25
2019-05-30T10:26:47.230Z,320.62
2019-05-30T10:27:48.032Z,320.62
2019-05-30T10:28:47.712Z,320.62
2019-05-30T10:29:47.595Z,320.62
2019-05-30T10:30:50.921Z,320.62
2019-05-30T10:31:48.272Z,320.62
2019-05-30T10:32:47.336Z,298.12
2019-05-30T10:33:47.559Z,326.25
2019-05-30T10:34:46.634Z,326.25
2019-05-30T10:35:47.435Z,320.62
2019-05-30T10:36:47.723Z,320.62
2019-05-30T10:37:47.178Z,320.62
2019-05-30T10:38:47.388Z,315.00
2019-05-30T10:39:47.312Z,315.00
2019-05-30T10:40:47.371Z,315.00
2019-05-30T10:41:47.463Z,315.00
2019-05-30T10:42:47.551Z,309.38
2019-05-30T10:43:47.362Z,315.00
2019-05-30T10:44:47.512Z,303.75
2019-05-30T10:45:46.572Z,315.00
2019-05-30T10:46:47.218Z,315.00
2019-05-30T10:47:47.484Z,309.38
2019-05-30T10:48:47.297Z,309.38
2019-05-30T10:49:46.835Z,315.00
2019-05-30T10:50:47.018Z,320.62
2019-05-30T10:51:46.637Z,320.62
2019-05-30T10:52:47.142Z,320.62
2019-05-30T10:53:47.385Z,320.62
2019-05-30T10:54:46.704Z,320.62
2019-05-30T10:55:46.929Z,320.62
2019-05-30T10:56:47.036Z,320.62
2019-05-30T10:57:47.019Z,315.00
2019-05-30T10:58:47.988Z,315.00
2019-05-30T10:59:47.186Z,309.38
2019-05-30T11:00:47.234Z,320.62
2019-05-30T11:01:47.092Z,315.00
2019-05-30T11:02:47.376Z,298.12
2019-05-30T11:03:47.125Z,315.00
2019-05-30T11:04:46.142Z,315.00
2019-05-30T11:05:46.215Z,315.00
2019-05-30T11:07:01.279Z,309.38
2019-05-30T11:08:00.162Z,315.00
2019-05-30T11:08:47.924Z,303.75
2019-05-30T11:09:46.605Z,315.00
2019-05-30T11:10:46.430Z,315.00
2019-05-30T11:11:46.637Z,315.00
2019-05-30T11:12:46.618Z,292.50
2019-05-30T11:13:46.786Z,315.00
2019-05-30T11:14:46.825Z,315.00
2019-05-30T11:15:47.078Z,315.00
2019-05-30T11:16:45.706Z,315.00
2019-05-30T11:17:45.685Z,315.00
2019-05-30T11:18:45.674Z,320.62
2019-05-30T11:19:45.665Z,315.00
2019-05-30T11:20:45.654Z,320.62
2019-05-30T11:21:45.653Z,320.62
2019-05-30T11:22:45.638Z,320.62
2019-05-30T11:23:45.622Z,315.00
2019-05-30T11:24:45.611Z,315.00
2019-05-30T11:25:45.663Z,286.88
2019-05-30T11:26:45.600Z,303.75
2019-05-30T11:27:45.583Z,298.12
2019-05-30T11:28:45.568Z,298.12
2019-05-30T11:29:45.557Z,298.12
2019-05-30T11:30:45.553Z,303.75
2019-05-30T11:31:45.545Z,281.25
2019-05-30T11:32:45.528Z,309.38
2019-05-30T11:33:45.520Z,309.38
2019-05-30T11:34:45.505Z,298.12
2019-05-30T11:35:45.494Z,309.38
2019-05-30T11:36:45.492Z,298.12
2019-05-30T11:37:45.472Z,309.38
2019-05-30T11:38:45.521Z,303.75
2019-05-30T11:39:45.452Z,292.50
2019-05-30T11:40:45.440Z,303.75
2019-05-30T11:41:45.438Z,315.00
2019-05-30T11:42:45.419Z,315.00
2019-05-30T11:43:45.415Z,309.38
2019-05-30T11:44:45.410Z,315.00
2019-05-30T11:45:45.388Z,315.00
2019-05-30T11:46:45.390Z,315.00
2019-05-30T11:47:45.368Z,320.62
2019-05-30T11:48:45.356Z,315.00
2019-05-30T11:49:45.346Z,326.25
2019-05-30T11:50:45.390Z,320.62
2019-05-30T11:51:45.336Z,320.62
2019-05-30T11:52:45.315Z,320.62
2019-05-30T11:53:45.354Z,315.00
2019-05-30T11:54:45.295Z,315.00
2019-05-30T11:55:45.290Z,320.62
2019-05-30T11:56:45.285Z,315.00
2019-05-30T11:57:45.262Z,303.75
2019-05-30T11:58:45.252Z,315.00
2019-05-30T11:59:45.242Z,315.00
2019-05-30T12:00:45.230Z,309.38
2019-05-30T12:01:45.257Z,303.75
2019-05-30T12:02:45.239Z,309.38
2019-05-30T12:03:45.210Z,315.00
2019-05-30T12:04:45.188Z,315.00
2019-05-30T12:05:45.177Z,315.00
2019-05-30T12:06:45.169Z,309.38
2019-05-30T12:07:45.165Z,309.38
2019-05-30T12:08:45.146Z,309.38
2019-05-30T12:09:45.139Z,309.38
2019-05-30T12:10:45.125Z,309.38
2019-05-30T12:11:45.114Z,315.00
2019-05-30T12:12:45.112Z,309.38
2019-05-30T12:13:45.096Z,303.75
2019-05-30T12:14:45.085Z,315.00
2019-05-30T12:15:45.071Z,309.38
2019-05-30T12:16:45.062Z,309.38
2019-05-30T12:17:45.059Z,303.75
2019-05-30T12:18:45.040Z,303.75
2019-05-30T12:19:45.030Z,292.50
2019-05-30T12:20:45.023Z,309.38
2019-05-30T12:21:45.010Z,309.38
2019-05-30T12:22:45.006Z,298.12
2019-05-30T12:23:44.986Z,303.75
2019-05-30T12:24:44.977Z,303.75
2019-05-30T12:25:44.970Z,303.75
2019-05-30T12:26:44.955Z,309.38
2019-05-30T12:27:44.956Z,286.88
2019-05-30T12:28:44.934Z,298.12
2019-05-30T12:29:44.924Z,298.12
2019-05-30T12:30:55.881Z,303.75
2019-05-30T12:31:45.904Z,309.38
2019-05-30T12:32:44.904Z,236.25
2019-05-30T12:33:44.882Z,309.38
2019-05-30T12:34:44.873Z,309.38